Accueil
METAR-TAF:

METAR-TAF

Aéroports :

Aéroport d'Anvers

Anvers, Belgique

latitude: 51-12N, longitude: 004-28E, altitude: 12 m

Observation

Le bulletin a été fait il y a 34 minutes, à 08:20 UTC
Vent 9 kt de nord/nord-est, variant entre nord et nord-est
Température 8°C
Humidité 57%
Pression 1027 hPa
Visibilité 10 km ou plus
pas de nuages en-dessous de 1500 mètres et pas de cumulonimbus.

METAR: EBAW 170820Z 02009KT 350V050 CAVOK 08/00 Q1027 NOSIG

Heure: 10:54 (08:54 UTC)

Prévision

Le bulletin a été fait il y a 54 minutes, à 08:00 UTC
Prévision valable du 17 à 09 UTC au 17 à 18 UTC
Vent 7 kt de nord/nord-est
Visibilité 10 km ou plus
Quelques nuages à une hauteur de 4500 ft

TAF: EBAW 170800Z 1709/1718 02007KT 9999 FEW045

Observations et prévisions météorologiques de plus de 4000 aéroports (messages METAR et TAF).

Les stations disponibles sont représentées par des disques jaunes et rouges sur la carte.

Passer la souris dessus pour voir le nom de la station.

Cliquer dessus pour voir les observations et prévisions météorologiques.

Pour changer de carte: cliquez sur les boutons verts avec une croix noire pour zoomer, sur le bouton vert avec un tiret pour effectuer un zoom arrière, ou sur les flèches vertes pour les cartes adjacentes.


METAR-TAF: